Time;durP1;ratioP1;P1;durP2;ratioP2;P2;SDS_P1;SDS_P2;PMS_P1;PMS_P2;Temp;Humidity;BMP_temperature;BMP_pressure;BME280_temperature;BME280_humidity;BME280_pressure;Samples;Min_cycle;Max_cycle;Signal;HPM_P1;HPM_P2
2022/02/12 00:00:46;;;;;;;;;;;;;;;2.83;100.00;99395.95;1665021;84;24811;-87
2022/02/12 00:03:13;;;;;;;;;;;;;;;2.79;100.00;99400.76;1680812;84;21901;-88
2022/02/12 00:05:39;;;;;;;;;;;;;;;2.78;100.00;99410.24;1666992;84;26130;-86
2022/02/12 00:08:05;;;;;;;;;;;;;;;2.80;100.00;99419.27;1665151;84;24664;-88
2022/02/12 00:10:32;;;;;;;;;;;;;;;2.77;100.00;99421.94;1659169;85;20295;-88
2022/02/12 00:12:58;;;;;;;;;;;;;;;2.74;100.00;99429.30;1666676;84;24854;-86
2022/02/12 00:15:26;;;;;;;;;;;;;;;2.66;100.00;99429.93;1668406;85;22117;-87
2022/02/12 00:17:54;;;;;;;;;;;;;;;2.60;100.00;99427.48;1672945;84;25840;-88
2022/02/12 00:20:20;;;;;;;;;;;;;;;2.57;100.00;99434.42;1676844;84;24758;-87
2022/02/12 00:22:46;;;;;;;;;;;;;;;2.58;100.00;99434.84;1678443;84;20208;-87
2022/02/12 00:25:12;;;;;;;;;;;;;;;2.57;100.00;99431.84;1678532;84;24758;-87
2022/02/12 00:27:38;;;;;;;;;;;;;;;2.55;100.00;99440.08;1687038;84;22145;-87
2022/02/12 00:30:09;;;;;;;;;;;;;;;2.50;100.00;99446.65;1674325;84;26204;-88
2022/02/12 00:32:35;;;;;;;;;;;;;;;2.53;100.00;99447.86;1692896;83;24488;-87
2022/02/12 00:35:01;;;;;;;;;;;;;;;2.52;100.00;99448.30;1671321;85;20233;-87
2022/02/12 00:37:29;;;;;;;;;;;;;;;2.54;100.00;99452.15;1654339;85;25628;-87
2022/02/12 00:39:55;;;;;;;;;;;;;;;2.56;100.00;99458.59;1691424;83;21882;-87
2022/02/12 00:42:22;;;;;;;;;;;;;;;2.56;100.00;99462.46;1674556;84;26140;-86
2022/02/12 00:44:48;;;;;;;;;;;;;;;2.53;100.00;99460.78;1697869;83;24500;-86
2022/02/12 00:47:15;;;;;;;;;;;;;;;2.52;100.00;99471.55;1700491;82;20224;-86
2022/02/12 00:49:41;;;;;;;;;;;;;;;2.52;100.00;99471.98;1700314;84;24777;-86
2022/02/12 00:52:07;;;;;;;;;;;;;;;2.53;100.00;99475.84;1699343;84;21918;-86
2022/02/12 00:54:33;;;;;;;;;;;;;;;2.57;100.00;99475.33;1701025;83;26000;-86
2022/02/12 00:56:59;;;;;;;;;;;;;;;2.61;100.00;99477.42;1699879;83;24386;-86
2022/02/12 00:59:25;;;;;;;;;;;;;;;2.63;100.00;99480.80;1705719;83;20651;-86
2022/02/12 01:01:51;;;;;;;;;;;;;;;2.68;100.00;99481.12;1669305;85;24928;-86
2022/02/12 01:04:18;;;;;;;;;;;;;;;2.69;100.00;99486.70;1670453;85;22121;-86
2022/02/12 01:06:44;;;;;;;;;;;;;;;2.71;100.00;99487.53;1674426;83;25955;-86
2022/02/12 01:09:10;;;;;;;;;;;;;;;2.76;100.00;99493.45;1677167;85;24507;-86
2022/02/12 01:11:36;;;;;;;;;;;;;;;2.76;100.00;99489.57;1674505;85;20196;-86
2022/02/12 01:14:02;;;;;;;;;;;;;;;2.72;100.00;99486.66;1672286;85;25059;-86
2022/02/12 01:16:28;;;;;;;;;;;;;;;2.70;100.00;99492.72;1674074;85;21961;-86
2022/02/12 01:18:55;;;;;;;;;;;;;;;2.67;100.00;99498.83;1669730;85;26055;-86
2022/02/12 01:21:21;;;;;;;;;;;;;;;2.66;100.00;99502.28;1664268;85;24544;-87
2022/02/12 01:23:47;;;;;;;;;;;;;;;2.66;100.00;99506.16;1674127;83;20228;-86
2022/02/12 01:26:13;;;;;;;;;;;;;;;2.67;100.00;99503.14;1667778;85;24816;-86
2022/02/12 01:28:39;;;;;;;;;;;;;;;2.70;100.00;99500.04;1675095;84;22017;-86
2022/02/12 01:31:05;;;;;;;;;;;;;;;2.71;100.00;99506.91;1668786;84;25937;-86
2022/02/12 01:33:31;;;;;;;;;;;;;;;2.71;100.00;99508.20;1669188;85;24470;-88
2022/02/12 01:35:57;;;;;;;;;;;;;;;2.73;100.00;99509.00;1670210;85;20309;-89
2022/02/12 01:38:32;;;;;;;;;;;;;;;2.73;100.00;99514.17;1673327;85;25399;-89
2022/02/12 01:41:01;;;;;;;;;;;;;;;2.67;100.00;99515.63;1682871;85;22865;-89
2022/02/12 01:43:28;;;;;;;;;;;;;;;2.63;100.00;99518.27;1675377;85;25498;-89
2022/02/12 01:45:57;;;;;;;;;;;;;;;2.63;100.00;99511.38;1672673;85;24496;-89
2022/02/12 01:48:25;;;;;;;;;;;;;;;2.62;100.00;99509.67;1677985;85;20558;-90
2022/02/12 01:50:51;;;;;;;;;;;;;;;2.63;100.00;99513.11;1677635;85;24771;-89
2022/02/12 01:53:19;;;;;;;;;;;;;;;2.64;100.00;99514.81;1676988;85;22018;-89
2022/02/12 01:55:45;;;;;;;;;;;;;;;2.64;100.00;99522.13;1648663;85;25905;-89
2022/02/12 01:58:14;;;;;;;;;;;;;;;2.66;100.00;99524.25;1668117;85;20707;-88
2022/02/12 02:00:41;;;;;;;;;;;;;;;2.67;100.00;99525.11;1674022;85;20167;-89
2022/02/12 02:03:10;;;;;;;;;;;;;;;2.69;100.00;99525.47;1671850;85;24912;-89
2022/02/12 02:05:36;;;;;;;;;;;;;;;2.72;100.00;99521.55;1670029;85;21816;-89
2022/02/12 02:08:03;;;;;;;;;;;;;;;2.74;100.00;99523.63;1668234;85;26036;-89
2022/02/12 02:10:31;;;;;;;;;;;;;;;2.73;100.00;99526.24;1667565;85;24484;-89
2022/02/12 02:12:57;;;;;;;;;;;;;;;2.70;100.00;99525.88;1670565;85;20249;-89
2022/02/12 02:15:24;;;;;;;;;;;;;;;2.66;100.00;99531.15;1660125;85;25446;-89
2022/02/12 02:17:50;;;;;;;;;;;;;;;2.61;100.00;99529.95;1652907;84;21904;-89
2022/02/12 02:20:18;;;;;;;;;;;;;;;2.58;100.00;99530.44;1664723;85;26159;-89
2022/02/12 02:22:46;;;;;;;;;;;;;;;2.55;100.00;99541.70;1669666;85;25132;-90
2022/02/12 02:25:22;;;;;;;;;;;;;;;2.53;100.00;99535.27;1668670;85;20505;-89
2022/02/12 02:27:54;;;;;;;;;;;;;;;2.52;100.00;99538.72;1671225;85;24743;-89
2022/02/12 02:30:34;;;;;;;;;;;;;;;2.51;100.00;99542.19;1667740;85;22088;-90
2022/02/12 02:33:16;;;;;;;;;;;;;;;2.47;100.00;99544.42;1666995;85;26087;-89
2022/02/12 02:35:44;;;;;;;;;;;;;;;2.47;100.00;99547.45;1676862;85;24492;-90
2022/02/12 02:38:12;;;;;;;;;;;;;;;2.48;100.00;99544.84;1669168;85;20526;-89
2022/02/12 02:40:45;;;;;;;;;;;;;;;2.51;100.00;99550.38;1658401;85;24771;-89
2022/02/12 02:43:14;;;;;;;;;;;;;;;2.52;100.00;99546.91;1662303;85;22050;-90
2022/02/12 02:45:40;;;;;;;;;;;;;;;2.56;100.00;99557.63;1671097;85;25953;-90
2022/02/12 02:48:18;;;;;;;;;;;;;;;2.60;100.00;99562.28;1669645;85;24450;-91
2022/02/12 02:56:51;;;;;;;;;;;;;;;2.46;100.00;99571.13;1666183;85;22091;-90
2022/02/12 02:59:20;;;;;;;;;;;;;;;2.50;100.00;99583.14;1667806;85;25936;-90
2022/02/12 03:01:56;;;;;;;;;;;;;;;2.46;100.00;99592.23;1674184;85;24312;-90
2022/02/12 03:04:31;;;;;;;;;;;;;;;2.40;100.00;99603.53;1667288;85;20291;-90
2022/02/12 03:06:57;;;;;;;;;;;;;;;2.38;100.00;99603.17;1657432;85;24770;-91
2022/02/12 03:09:23;;;;;;;;;;;;;;;2.38;100.00;99607.05;1672082;85;22029;-91
2022/02/12 03:11:55;;;;;;;;;;;;;;;2.35;100.00;99614.39;1669188;85;21032;-91
2022/02/12 03:14:33;;;;;;;;;;;;;;;2.39;100.00;99615.21;1671545;85;24456;-90
2022/02/12 03:17:00;;;;;;;;;;;;;;;2.41;100.00;99627.64;1665266;85;20224;-90
2022/02/12 03:19:26;;;;;;;;;;;;;;;2.34;100.00;99632.52;1670083;85;24914;-90
2022/02/12 03:21:59;;;;;;;;;;;;;;;2.32;100.00;99630.39;1675046;85;22004;-90
2022/02/12 03:24:25;;;;;;;;;;;;;;;2.28;100.00;99635.21;1673986;85;25981;-91
2022/02/12 03:27:09;;;;;;;;;;;;;;;2.25;100.00;99634.81;1668192;85;24552;-89
2022/02/12 03:29:35;;;;;;;;;;;;;;;2.21;100.00;99633.16;1670489;84;20327;-89
2022/02/12 03:32:01;;;;;;;;;;;;;;;2.18;100.00;99646.58;1674430;85;24751;-90
2022/02/12 03:34:30;;;;;;;;;;;;;;;2.15;100.00;99647.47;1672650;85;21980;-90
2022/02/12 03:36:58;;;;;;;;;;;;;;;2.12;100.00;99648.82;1681164;85;26007;-90
2022/02/12 03:39:39;;;;;;;;;;;;;;;2.17;100.00;99648.74;1664998;85;24481;-90
2022/02/12 03:42:06;;;;;;;;;;;;;;;2.17;100.00;99651.33;1668428;85;20333;-90
2022/02/12 03:44:38;;;;;;;;;;;;;;;2.17;100.00;99652.18;1671622;85;24828;-90
2022/02/12 03:47:17;;;;;;;;;;;;;;;2.19;100.00;99662.46;1674438;85;22059;-90
2022/02/12 03:49:44;;;;;;;;;;;;;;;2.18;100.00;99668.53;1669710;85;26060;-90
2022/02/12 03:52:10;;;;;;;;;;;;;;;2.18;100.00;99677.56;1670719;85;24575;-90
2022/02/12 03:54:38;;;;;;;;;;;;;;;2.14;100.00;99682.34;1672669;85;20216;-90
2022/02/12 03:57:04;;;;;;;;;;;;;;;2.13;100.00;99687.12;1667521;85;24813;-91
2022/02/12 03:59:33;;;;;;;;;;;;;;;2.09;100.00;99688.44;1663526;85;22563;-90
2022/02/12 04:02:00;;;;;;;;;;;;;;;2.08;100.00;99688.45;1673499;85;25962;-90
2022/02/12 04:04:26;;;;;;;;;;;;;;;2.05;100.00;99680.77;1667266;85;24595;-86
2022/02/12 04:06:52;;;;;;;;;;;;;;;2.03;100.00;99697.56;1667414;85;20311;-86
2022/02/12 04:09:19;;;;;;;;;;;;;;;2.01;100.00;99699.77;1668636;85;24727;-86
2022/02/12 04:11:45;;;;;;;;;;;;;;;1.97;100.00;99702.82;1672512;85;22060;-86
2022/02/12 04:14:11;;;;;;;;;;;;;;;1.96;100.00;99719.64;1674871;85;25959;-86
2022/02/12 04:16:38;;;;;;;;;;;;;;;1.88;100.00;99722.33;1663236;85;24456;-86
2022/02/12 04:19:03;;;;;;;;;;;;;;;1.81;100.00;99713.39;1665995;85;20446;-86
2022/02/12 04:21:31;;;;;;;;;;;;;;;1.83;100.00;99711.22;1672235;85;25563;-85
2022/02/12 04:23:57;;;;;;;;;;;;;;;1.84;100.00;99714.22;1672259;85;22954;-85
2022/02/12 04:26:26;;;;;;;;;;;;;;;1.87;100.00;99712.87;1664996;85;26042;-86
2022/02/12 04:28:52;;;;;;;;;;;;;;;1.90;100.00;99719.73;1675238;85;25210;-86
2022/02/12 04:31:23;;;;;;;;;;;;;;;1.89;100.00;99725.77;1671992;85;20475;-85
2022/02/12 04:33:49;;;;;;;;;;;;;;;1.93;100.00;99727.41;1696477;83;24821;-86
2022/02/12 04:36:15;;;;;;;;;;;;;;;1.99;100.00;99726.89;1669913;85;22035;-85
2022/02/12 04:38:42;;;;;;;;;;;;;;;2.04;100.00;99728.11;1707636;83;26017;-85
2022/02/12 04:41:08;;;;;;;;;;;;;;;2.03;100.00;99738.02;1710164;83;24496;-85
2022/02/12 04:43:37;;;;;;;;;;;;;;;2.04;100.00;99744.45;1666353;85;20593;-86
2022/02/12 04:46:03;;;;;;;;;;;;;;;2.07;100.00;99742.28;1671722;84;24738;-86
2022/02/12 04:48:29;;;;;;;;;;;;;;;2.10;100.00;99743.08;1697299;82;21950;-85
2022/02/12 04:50:55;;;;;;;;;;;;;;;2.19;100.00;99734.77;1701018;83;26014;-84
2022/02/12 04:53:21;;;;;;;;;;;;;;;2.21;100.00;99730.00;1662480;84;25116;-86
2022/02/12 04:55:47;;;;;;;;;;;;;;;2.27;100.00;99733.79;1701035;83;20551;-85
2022/02/12 04:58:13;;;;;;;;;;;;;;;2.34;100.00;99748.76;1702631;83;24889;-85
2022/02/12 05:00:44;;;;;;;;;;;;;;;2.38;100.00;99748.68;1697749;83;21976;-85
2022/02/12 05:03:07;;;;;;;;;;;;;;;2.43;100.00;99756.35;1695771;83;27157;-85
2022/02/12 05:05:33;;;;;;;;;;;;;;;2.42;100.00;99764.53;1700168;84;24467;-85
2022/02/12 05:08:00;;;;;;;;;;;;;;;2.33;100.00;99759.96;1701384;83;20309;-85
2022/02/12 05:10:26;;;;;;;;;;;;;;;2.30;100.00;99760.84;1668292;85;24732;-85
2022/02/12 05:12:52;;;;;;;;;;;;;;;2.27;100.00;99765.22;1670908;85;21979;-85
2022/02/12 05:15:18;;;;;;;;;;;;;;;2.23;100.00;99766.15;1672762;85;26031;-84
2022/02/12 05:17:44;;;;;;;;;;;;;;;2.26;100.00;99768.23;1671752;85;24479;-85
2022/02/12 05:20:11;;;;;;;;;;;;;;;2.27;100.00;99766.51;1671039;84;20363;-84
2022/02/12 05:22:37;;;;;;;;;;;;;;;2.30;100.00;99775.05;1665701;85;24743;-84
2022/02/12 05:25:05;;;;;;;;;;;;;;;2.35;100.00;99780.14;1670467;85;21943;-84
2022/02/12 05:27:32;;;;;;;;;;;;;;;2.39;100.00;99771.50;1671187;85;26088;-84
2022/02/12 05:29:58;;;;;;;;;;;;;;;2.39;100.00;99777.52;1677144;85;24415;-85
2022/02/12 05:32:25;;;;;;;;;;;;;;;2.46;100.00;99782.98;1672378;85;20241;-85
2022/02/12 05:34:51;;;;;;;;;;;;;;;2.47;100.00;99783.84;1675212;85;24916;-85
2022/02/12 05:37:17;;;;;;;;;;;;;;;2.55;100.00;99788.89;1671988;85;21933;-85
2022/02/12 05:39:43;;;;;;;;;;;;;;;2.64;100.00;99784.42;1667020;85;26037;-85
2022/02/12 05:42:09;;;;;;;;;;;;;;;2.71;100.00;99780.02;1667706;85;20298;-85
2022/02/12 05:44:35;;;;;;;;;;;;;;;2.78;100.00;99788.91;1674449;85;20303;-85
2022/02/12 05:47:01;;;;;;;;;;;;;;;2.79;100.00;99791.92;1675055;85;24805;-85
2022/02/12 05:49:27;;;;;;;;;;;;;;;2.65;100.00;99795.18;1671310;84;21946;-85
2022/02/12 05:51:53;;;;;;;;;;;;;;;2.40;100.00;99806.78;1672223;85;26627;-85
2022/02/12 05:54:29;;;;;;;;;;;;;;;2.15;100.00;99814.02;1666721;85;24610;-86
2022/02/12 05:56:55;;;;;;;;;;;;;;;1.97;100.00;99809.09;1677909;85;20241;-87
2022/02/12 05:59:25;;;;;;;;;;;;;;;1.93;100.00;99812.59;1673817;85;24808;-89
2022/02/12 06:01:51;;;;;;;;;;;;;;;1.83;100.00;99809.72;1669361;84;21992;-90
2022/02/12 06:04:17;;;;;;;;;;;;;;;1.78;100.00;99823.13;1681851;84;26298;-89
2022/02/12 06:06:43;;;;;;;;;;;;;;;1.77;100.00;99819.69;1665446;85;24604;-90
2022/02/12 06:09:14;;;;;;;;;;;;;;;1.77;100.00;99817.11;1668196;85;20636;-90
2022/02/12 06:11:43;;;;;;;;;;;;;;;1.90;100.00;99821.25;1664790;85;24800;-88
2022/02/12 06:14:11;;;;;;;;;;;;;;;2.03;100.00;99814.18;1669945;85;21852;-90
2022/02/12 06:17:02;;;;;;;;;;;;;;;2.15;100.00;99823.06;1682910;85;26217;-90
2022/02/12 06:19:31;;;;;;;;;;;;;;;2.25;100.00;99831.09;1675628;85;24638;-90
2022/02/12 06:22:00;;;;;;;;;;;;;;;2.46;100.00;99831.21;1659673;85;20217;-88
2022/02/12 06:24:26;;;;;;;;;;;;;;;2.59;100.00;99837.05;1663235;85;24933;-89
2022/02/12 06:26:57;;;;;;;;;;;;;;;2.53;100.00;99843.17;1664010;85;22036;-90
2022/02/12 06:29:21;;;;;;;;;;;;;;;2.56;100.00;99835.39;1662587;85;25603;-88
2022/02/12 06:31:48;;;;;;;;;;;;;;;2.62;100.00;99830.57;1667153;85;24372;-87
2022/02/12 06:34:14;;;;;;;;;;;;;;;2.58;100.00;99838.78;1664827;84;20224;-87
2022/02/12 06:36:48;;;;;;;;;;;;;;;2.64;100.00;99843.01;1659773;85;24802;-90
2022/02/12 06:39:15;;;;;;;;;;;;;;;2.69;100.00;99845.94;1663461;85;21956;-92
2022/02/12 06:41:44;;;;;;;;;;;;;;;2.66;100.00;99847.73;1668675;85;26065;-91
2022/02/12 06:44:11;;;;;;;;;;;;;;;2.70;100.00;99858.42;1656819;85;24555;-90
2022/02/12 06:46:40;;;;;;;;;;;;;;;2.66;100.00;99864.52;1661107;85;20221;-90
2022/02/12 06:49:28;;;;;;;;;;;;;;;2.59;100.00;99870.66;1669754;85;24910;-90
2022/02/12 06:52:01;;;;;;;;;;;;;;;2.58;100.00;99873.67;1668720;85;22243;-90
2022/02/12 06:54:27;;;;;;;;;;;;;;;2.64;100.00;99864.54;1671626;85;26029;-90
2022/02/12 06:56:54;;;;;;;;;;;;;;;2.63;100.00;99871.87;1660585;85;25036;-90
2022/02/12 06:59:30;;;;;;;;;;;;;;;2.62;100.00;99871.45;1658166;85;20365;-90
2022/02/12 07:01:56;;;;;;;;;;;;;;;2.55;100.00;99878.90;1662164;85;24746;-90
2022/02/12 07:04:33;;;;;;;;;;;;;;;2.45;100.00;99881.20;1669593;85;22834;-91
2022/02/12 07:07:01;;;;;;;;;;;;;;;2.42;100.00;99882.08;1664538;85;26036;-89
2022/02/12 07:09:30;;;;;;;;;;;;;;;2.38;100.00;99884.30;1662507;85;24596;-90
2022/02/12 07:11:56;;;;;;;;;;;;;;;2.33;100.00;99882.22;1663566;85;20269;-89
2022/02/12 07:14:23;;;;;;;;;;;;;;;2.22;100.00;99872.90;1663997;85;24900;-89
2022/02/12 07:16:56;;;;;;;;;;;;;;;2.14;100.00;99885.05;1660546;85;22654;-89
2022/02/12 07:19:22;;;;;;;;;;;;;;;2.09;100.00;99892.42;1660402;85;26034;-89
2022/02/12 07:21:48;;;;;;;;;;;;;;;2.10;100.00;99884.23;1668411;85;24622;-89
2022/02/12 07:24:20;;;;;;;;;;;;;;;2.10;100.00;99885.53;1662111;85;20255;-87
2022/02/12 07:26:46;;;;;;;;;;;;;;;2.10;100.00;99897.15;1662415;85;24825;-87
2022/02/12 07:29:12;;;;;;;;;;;;;;;2.14;100.00;99896.66;1654513;85;22085;-87
2022/02/12 07:31:38;;;;;;;;;;;;;;;2.11;100.00;99897.58;1663488;85;25999;-85
2022/02/12 07:34:04;;;;;;;;;;;;;;;1.99;100.00;99897.28;1669401;85;24582;-85
2022/02/12 07:36:30;;;;;;;;;;;;;;;1.90;100.00;99896.55;1659504;85;20837;-86
2022/02/12 07:38:57;;;;;;;;;;;;;;;1.79;100.00;99896.66;1663388;85;24818;-85
2022/02/12 07:41:23;;;;;;;;;;;;;;;1.75;100.00;99907.02;1664097;85;21927;-89
2022/02/12 07:43:51;;;;;;;;;;;;;;;1.71;100.00;99910.50;1666736;85;26050;-82
2022/02/12 07:46:17;;;;;;;;;;;;;;;1.68;100.00;99910.97;1667700;85;24548;-83
2022/02/12 07:48:43;;;;;;;;;;;;;;;1.69;100.00;99915.23;1667041;85;20472;-83
2022/02/12 07:51:09;;;;;;;;;;;;;;;1.67;100.00;99920.88;1663968;85;24778;-83
2022/02/12 07:53:35;;;;;;;;;;;;;;;1.63;100.00;99928.23;1662951;85;22005;-88
2022/02/12 07:56:02;;;;;;;;;;;;;;;1.64;100.00;99931.64;1665195;85;26753;-89
2022/02/12 07:58:29;;;;;;;;;;;;;;;1.61;100.00;99926.52;1671948;85;26470;-86
2022/02/12 08:00:55;;;;;;;;;;;;;;;1.58;100.00;99930.44;1665923;85;20258;-87
2022/02/12 08:03:21;;;;;;;;;;;;;;;1.59;100.00;99930.40;1666628;85;24794;-87
2022/02/12 08:05:47;;;;;;;;;;;;;;;1.62;100.00;99930.81;1668790;85;21921;-86
2022/02/12 08:08:13;;;;;;;;;;;;;;;1.67;100.00;99934.20;1664129;85;26033;-85
2022/02/12 08:13:24;;;;;;;;;;;;;;;1.79;100.00;99944.41;1653493;85;20219;-86
2022/02/12 08:15:50;;;;;;;;;;;;;;;1.83;100.00;99944.78;1663830;85;25450;-83
2022/02/12 08:18:22;;;;;;;;;;;;;;;1.90;100.00;99943.86;1661684;85;20425;-89
2022/02/12 08:20:49;;;;;;;;;;;;;;;1.96;100.00;99956.70;1671485;85;26061;-90
2022/02/12 08:23:17;;;;;;;;;;;;;;;2.01;100.00;99959.23;1667068;85;24621;-90
2022/02/12 08:25:46;;;;;;;;;;;;;;;2.08;100.00;99955.25;1667354;85;20308;-89
2022/02/12 08:28:13;;;;;;;;;;;;;;;2.13;100.00;99956.48;1663952;85;24835;-86
2022/02/12 08:30:39;;;;;;;;;;;;;;;2.10;100.00;99956.53;1673167;85;21945;-85
2022/02/12 08:33:05;;;;;;;;;;;;;;;2.04;100.00;99958.75;1669761;85;21112;-86
2022/02/12 08:35:31;;;;;;;;;;;;;;;2.00;100.00;99967.41;1665645;85;24378;-87
2022/02/12 08:37:58;;;;;;;;;;;;;;;1.97;100.00;99970.01;1667374;84;20244;-85
2022/02/12 08:40:24;;;;;;;;;;;;;;;2.04;100.00;99970.80;1667720;85;24755;-89
2022/02/12 08:42:50;;;;;;;;;;;;;;;2.09;100.00;99969.02;1660196;85;22113;-89
2022/02/12 08:45:23;;;;;;;;;;;;;;;2.10;100.00;99971.59;1667781;85;25986;-89
2022/02/12 08:47:50;;;;;;;;;;;;;;;2.15;100.00;99986.17;1670076;85;24487;-89
2022/02/12 08:50:16;;;;;;;;;;;;;;;2.04;100.00;99987.59;1672594;85;20208;-86
2022/02/12 08:52:43;;;;;;;;;;;;;;;1.87;100.00;99998.52;1660612;85;24478;-87
2022/02/12 08:55:12;;;;;;;;;;;;;;;1.65;100.00;100000.01;1671378;85;21997;-89
2022/02/12 08:57:38;;;;;;;;;;;;;;;1.52;100.00;100012.61;1664811;85;26070;-89
2022/02/12 09:00:14;;;;;;;;;;;;;;;1.41;100.00;100016.14;1669889;85;24443;-88
2022/02/12 09:02:40;;;;;;;;;;;;;;;1.31;100.00;100011.45;1662177;85;20229;-88
2022/02/12 09:05:06;;;;;;;;;;;;;;;1.28;100.00;100012.78;1672709;85;24790;-88
2022/02/12 09:07:33;;;;;;;;;;;;;;;1.24;100.00;100015.83;1672662;85;21925;-82
2022/02/12 09:10:01;;;;;;;;;;;;;;;1.30;100.00;100021.81;1667562;85;26002;-82
2022/02/12 09:12:28;;;;;;;;;;;;;;;1.39;100.00;100023.87;1670524;85;24397;-82
2022/02/12 09:14:54;;;;;;;;;;;;;;;1.53;100.00;100022.47;1688346;83;20606;-82
2022/02/12 09:17:20;;;;;;;;;;;;;;;1.65;100.00;100019.79;1689901;83;24721;-82
2022/02/12 09:19:47;;;;;;;;;;;;;;;1.69;100.00;100030.53;1689918;83;21888;-82
2022/02/12 09:22:19;;;;;;;;;;;;;;;1.83;100.00;100026.52;1697034;83;26094;-82
2022/02/12 09:24:45;;;;;;;;;;;;;;;1.94;100.00;100028.57;1691159;83;24444;-86
2022/02/12 09:27:18;;;;;;;;;;;;;;;2.06;100.00;100032.33;1685216;83;20184;-88
2022/02/12 09:29:44;;;;;;;;;;;;;;;2.21;100.00;100021.84;1694723;83;24769;-89
2022/02/12 09:32:11;;;;;;;;;;;;;;;2.29;100.00;100019.18;1690732;83;22055;-88
2022/02/12 09:34:44;;;;;;;;;;;;;;;2.37;100.00;100023.80;1660146;84;26865;-88
2022/02/12 09:37:15;;;;;;;;;;;;;;;2.38;100.00;100022.94;1683184;85;24548;-89
2022/02/12 09:39:41;;;;;;;;;;;;;;;2.33;100.00;100015.69;1687885;85;20287;-86
2022/02/12 09:42:09;;;;;;;;;;;;;;;2.45;100.00;100021.57;1687403;85;24790;-85
2022/02/12 09:44:37;;;;;;;;;;;;;;;2.53;100.00;100023.61;1685467;85;22041;-82
2022/02/12 09:47:11;;;;;;;;;;;;;;;2.68;100.00;100024.28;1685659;85;26395;-82
2022/02/12 09:49:38;;;;;;;;;;;;;;;2.73;100.00;100016.03;1687685;85;24429;-82
2022/02/12 09:52:05;;;;;;;;;;;;;;;2.69;100.00;100019.11;1684676;85;20471;-82
2022/02/12 09:54:31;;;;;;;;;;;;;;;2.64;100.00;100012.28;1688525;83;24802;-82
2022/02/12 09:56:58;;;;;;;;;;;;;;;2.62;100.00;100016.64;1685605;84;22190;-89
2022/02/12 09:59:24;;;;;;;;;;;;;;;2.64;100.00;100013.58;1684995;85;26025;-89
2022/02/12 10:01:58;;;;;;;;;;;;;;;2.75;100.00;100018.17;1686730;85;24649;-89
2022/02/12 10:04:31;;;;;;;;;;;;;;;2.86;100.00;100021.03;1685844;83;20259;-83
2022/02/12 10:06:58;;;;;;;;;;;;;;;2.92;100.00;100011.91;1687201;84;25391;-83
2022/02/12 10:09:24;;;;;;;;;;;;;;;3.05;100.00;100009.16;1688076;84;22081;-90
2022/02/12 10:11:52;;;;;;;;;;;;;;;3.21;100.00;100008.05;1685969;84;25933;-87
2022/02/12 10:14:19;;;;;;;;;;;;;;;3.24;100.00;100011.88;1684685;83;24586;-89
2022/02/12 10:16:56;;;;;;;;;;;;;;;3.27;100.00;100014.44;1686565;85;20180;-89
2022/02/12 10:19:32;;;;;;;;;;;;;;;3.31;100.00;100011.77;1684020;83;24771;-89
2022/02/12 10:22:16;;;;;;;;;;;;;;;3.47;100.00;100014.11;1687831;83;22058;-88
2022/02/12 10:24:46;;;;;;;;;;;;;;;3.43;100.00;100011.17;1689640;84;26057;-89
2022/02/12 10:27:18;;;;;;;;;;;;;;;3.36;100.00;100014.28;1687186;83;24498;-88
2022/02/12 10:29:45;;;;;;;;;;;;;;;3.48;100.00;100008.92;1686374;84;20289;-83
2022/02/12 10:32:12;;;;;;;;;;;;;;;3.63;100.00;100009.95;1687659;83;24823;-83
2022/02/12 10:34:40;;;;;;;;;;;;;;;3.75;100.00;100006.31;1685150;84;22023;-83
2022/02/12 10:37:06;;;;;;;;;;;;;;;3.91;100.00;100006.89;1688952;83;26092;-83
2022/02/12 10:39:34;;;;;;;;;;;;;;;4.04;100.00;99997.56;1686839;83;24506;-83
2022/02/12 10:42:01;;;;;;;;;;;;;;;4.09;100.00;99998.80;1685185;84;20243;-83
2022/02/12 10:44:30;;;;;;;;;;;;;;;4.10;100.00;99992.71;1681241;83;24761;-84
2022/02/12 10:46:57;;;;;;;;;;;;;;;4.01;100.00;99992.45;1688603;84;22131;-83
2022/02/12 10:49:26;;;;;;;;;;;;;;;4.03;100.00;99985.52;1685507;84;25928;-89
2022/02/12 10:51:52;;;;;;;;;;;;;;;4.10;100.00;99988.83;1685620;84;24398;-89
2022/02/12 10:54:19;;;;;;;;;;;;;;;4.06;100.00;99983.30;1686731;84;20265;-83
2022/02/12 10:56:47;;;;;;;;;;;;;;;4.09;100.00;99980.20;1686439;85;24890;-83
2022/02/12 10:59:14;;;;;;;;;;;;;;;4.09;100.00;99985.37;1685363;84;22047;-83
2022/02/12 11:01:40;;;;;;;;;;;;;;;4.09;100.00;99984.08;1684025;85;26100;-86
2022/02/12 11:04:07;;;;;;;;;;;;;;;4.12;100.00;99982.75;1689538;83;24450;-86
2022/02/12 11:06:35;;;;;;;;;;;;;;;4.14;100.00;99973.66;1686032;85;20212;-86
2022/02/12 11:09:10;;;;;;;;;;;;;;;4.16;100.00;99966.69;1665480;85;40173;-88
2022/02/12 11:11:48;;;;;;;;;;;;;;;4.14;100.00;99963.30;1686863;83;21986;-88
2022/02/12 11:14:15;;;;;;;;;;;;;;;4.02;100.00;99965.67;1662888;85;26143;-86
2022/02/12 11:16:42;;;;;;;;;;;;;;;4.01;100.00;99959.22;1697365;83;25203;-86
2022/02/12 11:19:08;;;;;;;;;;;;;;;4.07;100.00;99946.16;1658587;86;20532;-86
2022/02/12 11:21:37;;;;;;;;;;;;;;;4.08;100.00;99937.06;1681768;83;24829;-86
2022/02/12 11:24:04;;;;;;;;;;;;;;;4.05;100.00;99944.88;1663258;86;21984;-86
2022/02/12 11:26:41;;;;;;;;;;;;;;;4.09;100.00;99944.40;1662366;84;26177;-86
2022/02/12 11:29:26;;;;;;;;;;;;;;;4.10;100.00;99937.87;1657312;86;24507;-86
2022/02/12 11:32:09;;;;;;;;;;;;;;;4.04;100.00;99931.95;1662080;85;20517;-86
2022/02/12 11:34:36;;;;;;;;;;;;;;;3.98;100.00;99933.39;1661187;86;24910;-86
2022/02/12 11:37:13;;;;;;;;;;;;;;;3.99;100.00;99929.45;1652978;86;22021;-86
2022/02/12 11:39:39;;;;;;;;;;;;;;;3.94;100.00;99922.66;1656064;85;26092;-83
2022/02/12 11:42:05;;;;;;;;;;;;;;;3.76;100.00;99922.59;1658939;86;24481;-86
2022/02/12 11:44:42;;;;;;;;;;;;;;;3.56;100.00;99922.07;1666111;86;20287;-86
2022/02/12 11:47:09;;;;;;;;;;;;;;;3.47;100.00;99919.22;1664796;86;24738;-86
2022/02/12 11:49:41;;;;;;;;;;;;;;;3.50;100.00;99920.88;1656373;85;21950;-86
2022/02/12 11:52:14;;;;;;;;;;;;;;;3.46;100.00;99914.92;1678521;84;25998;-89
2022/02/12 11:55:03;;;;;;;;;;;;;;;3.45;100.00;99909.32;1656220;86;24522;-89
2022/02/12 11:57:37;;;;;;;;;;;;;;;3.51;100.00;99914.39;1660330;86;20225;-88
2022/02/12 12:00:04;;;;;;;;;;;;;;;3.68;100.00;99911.06;1662373;86;25595;-88
2022/02/12 12:02:38;;;;;;;;;;;;;;;3.81;100.00;99902.64;1662433;86;22780;-82
2022/02/12 12:05:15;;;;;;;;;;;;;;;3.77;100.00;99903.55;1661618;86;26156;-82
2022/02/12 12:08:09;;;;;;;;;;;;;;;3.67;100.00;99910.64;1666588;84;24522;-82
2022/02/12 12:10:43;;;;;;;;;;;;;;;3.58;100.00;99907.38;1672684;85;20309;-82
2022/02/12 12:13:18;;;;;;;;;;;;;;;3.51;100.00;99906.62;1661933;85;25412;-82
2022/02/12 12:15:49;;;;;;;;;;;;;;;3.54;100.00;99899.27;1658697;85;22120;-82
2022/02/12 12:18:15;;;;;;;;;;;;;;;3.49;100.00;99898.50;1663965;85;26090;-83
2022/02/12 12:20:42;;;;;;;;;;;;;;;3.40;100.00;99890.44;1664637;85;24379;-83
2022/02/12 12:23:12;;;;;;;;;;;;;;;3.35;100.00;99884.49;1652281;85;20252;-83
2022/02/12 12:25:54;;;;;;;;;;;;;;;3.41;99.96;99877.06;1684410;84;24285;-86
2022/02/12 12:28:24;;;;;;;;;;;;;;;3.52;99.71;99860.91;1666433;85;21862;-86
2022/02/12 12:30:50;;;;;;;;;;;;;;;3.61;99.46;99863.30;1662317;85;25945;-86
2022/02/12 12:33:16;;;;;;;;;;;;;;;3.61;99.13;99860.72;1689021;84;24459;-86
2022/02/12 12:35:50;;;;;;;;;;;;;;;3.60;98.77;99862.45;1664697;85;20229;-87
2022/02/12 12:38:16;;;;;;;;;;;;;;;3.70;98.52;99857.53;1706510;82;24860;-86
2022/02/12 12:40:46;;;;;;;;;;;;;;;3.65;98.05;99857.22;1705407;83;22059;-86
2022/02/12 12:43:14;;;;;;;;;;;;;;;3.55;97.44;99859.09;1705586;83;26065;-82
2022/02/12 12:45:41;;;;;;;;;;;;;;;3.51;96.88;99860.48;1661085;85;24468;-82
2022/02/12 12:48:07;;;;;;;;;;;;;;;3.51;96.44;99856.60;1665718;85;20467;-82
2022/02/12 12:50:38;;;;;;;;;;;;;;;3.58;96.21;99853.88;1678229;85;24811;-83
2022/02/12 12:53:08;;;;;;;;;;;;;;;3.68;96.08;99861.88;1674738;85;22774;-83
2022/02/12 12:55:35;;;;;;;;;;;;;;;3.69;95.83;99856.27;1665658;85;26050;-83
2022/02/12 12:58:12;;;;;;;;;;;;;;;3.68;95.55;99846.78;1669216;85;24508;-82
2022/02/12 13:00:41;;;;;;;;;;;;;;;3.70;95.24;99843.73;1706563;83;20238;-83